Time;durP1;ratioP1;P1;durP2;ratioP2;P2;SDS_P1;SDS_P2;PMS_P1;PMS_P2;Temp;Humidity;BMP_temperature;BMP_pressure;BME280_temperature;BME280_humidity;BME280_pressure;Samples;Min_cycle;Max_cycle;Signal;HPM_P1;HPM_P2
2021/11/16 00:01:11;;;;;;;4.32;1.52;;;;;;;-1.58;60.55;101739.50;5054588;28;20037;-53
2021/11/16 00:03:37;;;;;;;1.80;1.58;;;;;;;-1.63;60.93;101736.00;5067130;28;20025;-56
2021/11/16 00:06:02;;;;;;;2.78;1.50;;;;;;;-1.69;61.16;101722.88;5058521;28;20105;-52
2021/11/16 00:08:28;;;;;;;7.75;3.63;;;;;;;-1.77;61.12;101717.59;5059121;28;20063;-56
2021/11/16 00:10:54;;;;;;;2.78;1.70;;;;;;;-1.72;61.28;101721.09;5065720;28;20113;-57
2021/11/16 00:13:20;;;;;;;2.58;1.55;;;;;;;-1.70;61.22;101721.97;5053971;28;20039;-55
2021/11/16 00:15:45;;;;;;;1.75;1.33;;;;;;;-1.81;61.07;101713.22;5065577;28;20037;-55
2021/11/16 00:18:12;;;;;;;3.28;1.38;;;;;;;-1.76;60.96;101716.72;5058960;28;20366;-54
2021/11/16 00:20:42;;;;;;;2.00;1.30;;;;;;;-1.80;61.34;101717.59;5057977;28;20029;-53
2021/11/16 00:23:16;;;;;;;3.00;1.70;;;;;;;-1.82;61.37;101722.84;5067282;28;20060;-55
2021/11/16 00:25:42;;;;;;;5.28;1.40;;;;;;;-1.89;61.79;101706.22;5055492;28;20405;-52
2021/11/16 00:28:07;;;;;;;1.98;1.25;;;;;;;-1.85;61.39;101708.84;5062448;28;20048;-55
2021/11/16 00:30:33;;;;;;;2.45;1.20;;;;;;;-1.83;61.77;101714.97;5061991;28;20151;-54
2021/11/16 00:32:59;;;;;;;1.60;1.10;;;;;;;-1.82;61.59;101700.97;5054980;28;20397;-52
2021/11/16 00:35:24;;;;;;;2.25;1.38;;;;;;;-1.71;61.39;101714.97;5067512;28;20043;-53
2021/11/16 00:37:50;;;;;;;2.38;1.00;;;;;;;-1.77;61.52;101689.63;5056216;28;20457;-55
2021/11/16 00:40:19;;;;;;;1.85;1.10;;;;;;;-1.56;61.41;101705.38;5060692;28;20051;-55
2021/11/16 00:42:47;;;;;;;1.75;1.17;;;;;;;-1.45;60.78;101696.59;5062821;28;20039;-55
2021/11/16 00:45:13;;;;;;;2.45;1.35;;;;;;;-1.34;60.62;101708.84;5054122;28;20452;-51
2021/11/16 00:47:41;;;;;;;2.78;1.27;;;;;;;-1.20;59.92;101695.72;5066224;28;20115;-51
2021/11/16 00:50:07;;;;;;;2.05;1.05;;;;;;;-1.08;60.04;101689.56;5058810;28;20085;-53
2021/11/16 00:52:33;;;;;;;2.53;1.00;;;;;;;-0.98;59.42;101675.50;5058573;28;20028;-54
2021/11/16 00:54:59;;;;;;;0.93;0.63;;;;;;;-0.92;58.83;101669.38;5066112;28;20040;-54
2021/11/16 00:57:24;;;;;;;0.95;0.70;;;;;;;-0.87;59.37;101672.84;5053156;28;20037;-52
2021/11/16 00:59:50;;;;;;;1.30;0.90;;;;;;;-0.89;58.77;101664.94;5064275;28;20033;-57
2021/11/16 01:02:16;;;;;;;1.42;0.90;;;;;;;-0.80;58.95;101682.47;5059704;28;20059;-55
2021/11/16 01:04:48;;;;;;;1.27;0.98;;;;;;;-0.74;58.89;101664.00;5057519;28;20025;-53
2021/11/16 01:07:15;;;;;;;1.80;0.80;;;;;;;-0.69;58.12;101668.41;5066558;28;20461;-53
2021/11/16 01:09:40;;;;;;;1.50;1.20;;;;;;;-0.70;58.32;101658.78;5054640;28;20036;-54
2021/11/16 01:12:06;;;;;;;0.98;0.68;;;;;;;-0.68;58.17;101652.59;5062255;28;20571;-55
2021/11/16 01:14:32;;;;;;;1.10;0.80;;;;;;;-0.67;58.26;101653.50;5062123;28;20116;-56
2021/11/16 01:16:58;;;;;;;1.30;0.80;;;;;;;-0.65;58.13;101644.69;5054767;28;20397;-55
2021/11/16 01:19:24;;;;;;;1.70;0.95;;;;;;;-0.62;57.98;101644.66;5054353;28;20033;-53
2021/11/16 01:21:49;;;;;;;2.97;1.00;;;;;;;-0.59;57.78;101633.28;5039794;28;20037;-54
2021/11/16 01:24:16;;;;;;;4.25;0.80;;;;;;;-0.53;57.78;101637.63;5048954;28;20032;-54
2021/11/16 01:26:45;;;;;;;1.48;0.85;;;;;;;-0.50;58.10;101632.34;5048125;28;20057;-55
2021/11/16 01:29:11;;;;;;;1.13;0.80;;;;;;;-0.44;57.59;101621.78;5064565;28;20497;-53
2021/11/16 01:31:36;;;;;;;1.85;0.90;;;;;;;-0.51;57.35;101613.03;5058236;28;20044;-53
2021/11/16 01:34:04;;;;;;;1.13;1.00;;;;;;;-0.51;57.82;101613.03;5038773;28;20045;-52
2021/11/16 01:36:30;;;;;;;1.20;0.90;;;;;;;-0.49;57.67;101605.16;5038769;28;20504;-54
2021/11/16 01:38:58;;;;;;;1.83;1.00;;;;;;;-0.41;57.92;101605.13;5063553;28;20087;-51
2021/11/16 01:41:25;;;;;;;1.30;0.90;;;;;;;-0.27;57.36;101605.88;5056517;28;20460;-53
2021/11/16 01:43:51;;;;;;;1.60;1.10;;;;;;;-0.32;57.54;101591.88;5067569;28;20036;-50
2021/11/16 01:46:19;;;;;;;2.20;0.80;;;;;;;-0.24;57.39;101600.63;5063149;28;20032;-50
2021/11/16 01:48:49;;;;;;;0.98;0.80;;;;;;;-0.25;57.02;101598.84;5059698;28;20029;-51
2021/11/16 01:51:18;;;;;;;1.35;0.90;;;;;;;-0.27;57.31;101586.59;5069956;28;20029;-53
2021/11/16 01:53:43;;;;;;;1.23;1.00;;;;;;;-0.28;57.22;101592.75;5058356;28;20373;-56
2021/11/16 01:56:09;;;;;;;1.60;1.10;;;;;;;-0.23;57.44;101597.09;5065000;28;20044;-56
2021/11/16 01:58:35;;;;;;;1.58;1.27;;;;;;;-0.17;56.86;101593.53;5064233;28;20391;-54
2021/11/16 02:01:03;;;;;;;1.33;1.13;;;;;;;-0.16;57.13;101585.63;5057690;28;20036;-54
2021/11/16 02:03:29;;;;;;;1.67;0.90;;;;;;;-0.15;57.33;101573.31;5069542;28;20025;-52
2021/11/16 02:06:12;;;;;;;1.65;0.98;;;;;;;-0.07;57.26;101579.44;5059881;28;20028;-55
2021/11/16 02:08:38;;;;;;;2.42;1.13;;;;;;;-0.08;57.15;101561.88;5061013;28;20499;-55
2021/11/16 02:11:03;;;;;;;1.20;0.90;;;;;;;-0.02;57.04;101559.19;5069084;28;20256;-52
2021/11/16 02:13:29;;;;;;;1.98;1.00;;;;;;;0.01;56.86;101568.84;5056804;28;20550;-55
2021/11/16 02:15:55;;;;;;;1.52;0.77;;;;;;;-0.02;57.08;101568.84;5051041;28;20465;-55
2021/11/16 02:18:20;;;;;;;2.40;1.30;;;;;;;0.00;57.21;101556.56;5051728;28;20460;-54
2021/11/16 02:20:48;;;;;;;5.55;1.15;;;;;;;-0.10;57.03;101533.81;5059577;28;20048;-55
2021/11/16 02:23:16;;;;;;;0.82;0.70;;;;;;;0.01;56.62;101558.31;5067939;28;20382;-55
2021/11/16 02:25:45;;;;;;;1.38;1.00;;;;;;;0.03;56.90;101558.28;5056138;28;20446;-54
2021/11/16 02:28:11;;;;;;;1.17;0.88;;;;;;;0.01;56.86;101549.50;5064128;28;20045;-57
2021/11/16 02:30:36;;;;;;;1.08;0.70;;;;;;;0.05;56.48;101553.84;5065831;28;20106;-55
2021/11/16 02:33:03;;;;;;;1.15;0.70;;;;;;;0.05;56.40;101548.59;5055426;28;20032;-56
2021/11/16 02:35:28;;;;;;;1.05;0.73;;;;;;;0.09;56.39;101545.94;5069293;28;20037;-54
2021/11/16 02:37:56;;;;;;;2.45;0.80;;;;;;;0.12;56.84;101545.91;5059402;28;20028;-55
2021/11/16 02:40:22;;;;;;;1.80;0.68;;;;;;;0.13;56.42;101552.06;5060868;28;20033;-55
2021/11/16 02:42:49;;;;;;;1.70;0.80;;;;;;;0.11;56.70;101546.78;5064832;28;20107;-56
2021/11/16 02:45:17;;;;;;;1.25;0.70;;;;;;;0.10;56.76;101531.88;5055894;28;20469;-55
2021/11/16 02:47:43;;;;;;;2.08;0.70;;;;;;;0.13;56.63;101531.84;5067839;28;20071;-52
2021/11/16 02:50:09;;;;;;;1.33;0.88;;;;;;;0.08;56.65;101517.84;5060243;28;20082;-57
2021/11/16 02:52:36;;;;;;;1.60;0.80;;;;;;;0.17;56.30;101516.00;5057052;28;20488;-56
2021/11/16 02:55:01;;;;;;;2.75;0.90;;;;;;;0.09;56.24;101498.53;5056340;28;20461;-55
2021/11/16 02:57:28;;;;;;;0.88;0.75;;;;;;;0.12;56.23;101508.13;5064369;28;20107;-56
2021/11/16 02:59:54;;;;;;;1.30;0.70;;;;;;;0.12;56.64;101514.28;5050478;28;20552;-55
2021/11/16 03:02:20;;;;;;;2.25;1.00;;;;;;;0.12;56.60;101509.03;5036874;28;20055;-57
2021/11/16 03:04:46;;;;;;;1.98;0.68;;;;;;;0.13;56.22;101512.53;5039064;28;20052;-53
2021/11/16 03:07:32;;;;;;;1.35;0.80;;;;;;;0.19;56.66;101486.13;5065754;28;20423;-56
2021/11/16 03:10:00;;;;;;;3.08;0.57;;;;;;;0.13;56.13;101494.09;5059165;28;20078;-49
2021/11/16 03:12:30;;;;;;;3.30;0.90;;;;;;;0.12;56.34;101485.31;5052029;28;20036;-52
2021/11/16 03:14:56;;;;;;;2.28;0.60;;;;;;;0.10;56.56;101476.56;5040809;28;20030;-53
2021/11/16 03:17:23;;;;;;;1.98;0.60;;;;;;;0.09;56.25;101476.56;5058776;28;20045;-55
2021/11/16 03:19:48;;;;;;;0.70;0.60;;;;;;;-0.06;56.53;101435.47;5046335;28;20389;-56
2021/11/16 03:22:15;;;;;;;0.80;0.65;;;;;;;0.12;56.73;101461.59;5061042;28;20029;-56
2021/11/16 03:24:41;;;;;;;1.25;0.70;;;;;;;0.14;56.41;101461.59;5064471;28;20029;-56
2021/11/16 03:27:10;;;;;;;1.92;0.73;;;;;;;0.20;56.46;101463.28;5055152;28;20053;-56
2021/11/16 03:29:43;;;;;;;0.90;0.60;;;;;;;0.22;56.19;101457.13;5067942;28;20037;-54
2021/11/16 03:32:12;;;;;;;1.50;0.85;;;;;;;0.27;55.78;101465.84;5060150;28;20067;-57
2021/11/16 03:34:41;;;;;;;1.10;0.80;;;;;;;0.25;55.75;101450.94;5057846;28;20033;-56
2021/11/16 03:37:07;;;;;;;0.98;0.50;;;;;;;0.17;56.06;101452.78;5066781;28;20064;-54
2021/11/16 03:39:33;;;;;;;2.05;0.65;;;;;;;0.11;55.77;101441.44;5038760;28;20067;-56
2021/11/16 03:41:59;;;;;;;1.17;0.70;;;;;;;0.10;56.15;101458.13;5070176;28;20033;-56
2021/11/16 03:44:26;;;;;;;2.92;0.73;;;;;;;0.12;56.41;101466.00;5060624;28;20032;-55
2021/11/16 03:46:52;;;;;;;1.83;0.63;;;;;;;-0.09;56.31;101404.78;5066015;28;20031;-55
2021/11/16 03:49:18;;;;;;;0.90;0.63;;;;;;;0.13;56.17;101447.53;5054337;28;20029;-56
2021/11/16 03:51:45;;;;;;;2.45;0.80;;;;;;;0.14;56.01;101443.16;5065946;28;20036;-55
2021/11/16 03:54:11;;;;;;;1.10;0.70;;;;;;;0.19;56.06;101429.94;5059268;28;20040;-54
2021/11/16 03:56:37;;;;;;;0.73;0.60;;;;;;;0.10;56.49;101421.25;5058527;28;20021;-55
2021/11/16 03:59:04;;;;;;;0.70;0.60;;;;;;;0.11;56.66;101408.94;5067300;28;20372;-54
2021/11/16 04:01:30;;;;;;;2.83;0.73;;;;;;;0.10;55.87;101404.56;5054574;28;20440;-57
2021/11/16 04:03:58;;;;;;;1.92;0.80;;;;;;;0.18;56.48;101418.53;5064071;28;20029;-54
2021/11/16 04:06:23;;;;;;;1.25;0.77;;;;;;;0.08;56.64;101391.44;5061299;28;20107;-57
2021/11/16 04:08:49;;;;;;;4.60;0.90;;;;;;;0.20;55.97;101407.97;5046045;28;20105;-53
2021/11/16 04:11:14;;;;;;;0.82;0.60;;;;;;;0.18;56.37;101394.81;5064552;28;20468;-55
2021/11/16 04:13:41;;;;;;;1.15;0.73;;;;;;;0.15;56.10;101389.59;5049655;28;20016;-58
2021/11/16 04:16:06;;;;;;;1.02;0.65;;;;;;;0.09;56.46;101382.63;5063185;28;20036;-54
2021/11/16 04:18:33;;;;;;;2.03;0.70;;;;;;;0.04;56.54;101370.41;5062307;28;20028;-56
2021/11/16 04:20:58;;;;;;;3.92;1.10;;;;;;;0.06;56.50;101384.41;5055259;28;20082;-54
2021/11/16 04:23:25;;;;;;;1.08;0.82;;;;;;;0.02;56.53;101382.72;5066965;28;20029;-57
2021/11/16 04:25:52;;;;;;;1.80;0.82;;;;;;;-0.02;57.00;101385.41;5056763;28;20048;-55
2021/11/16 04:28:18;;;;;;;1.13;0.60;;;;;;;-0.05;56.69;101377.53;5059225;28;20104;-54
2021/11/16 04:30:45;;;;;;;1.08;0.80;;;;;;;-0.11;56.87;101384.63;5049830;28;20037;-49
2021/11/16 04:33:12;;;;;;;2.53;0.70;;;;;;;-0.16;57.25;101385.53;5049924;28;20021;-54
2021/11/16 04:35:38;;;;;;;2.50;0.70;;;;;;;-0.43;57.30;101341.97;5042266;28;20029;-56
2021/11/16 04:38:05;;;;;;;1.77;0.90;;;;;;;-0.19;57.64;101379.44;5062443;28;20600;-56
2021/11/16 04:40:37;;;;;;;1.40;0.90;;;;;;;-0.37;57.46;101339.25;5061804;28;20453;-58
2021/11/16 04:43:09;;;;;;;2.85;0.90;;;;;;;-0.31;57.70;101351.47;5044212;28;20037;-56
2021/11/16 04:45:37;;;;;;;2.08;0.88;;;;;;;-0.30;57.60;101364.63;5038164;28;20468;-53
2021/11/16 04:48:08;;;;;;;2.55;0.80;;;;;;;-0.40;58.34;101351.59;5062707;28;20136;-52
2021/11/16 04:55:57;;;;;;;1.55;0.80;;;;;;;-0.84;59.44;101336.22;5036681;28;20102;-56
2021/11/16 05:03:56;;;;;;;1.08;0.68;;;;;;;-1.03;59.92;101331.09;5046702;28;20085;-57
2021/11/16 05:06:22;;;;;;;1.60;1.00;;;;;;;-1.12;60.06;101333.81;5064049;28;20025;-53
2021/11/16 05:08:49;;;;;;;1.23;0.88;;;;;;;-1.20;60.03;101323.38;5068310;28;20035;-53
2021/11/16 05:11:16;;;;;;;2.03;1.20;;;;;;;-1.25;60.17;101324.28;5040971;28;20037;-57
2021/11/16 05:13:43;;;;;;;2.20;1.10;;;;;;;-1.24;60.71;101320.75;5048742;28;20027;-56
2021/11/16 05:16:14;;;;;;;1.55;1.17;;;;;;;-1.24;60.30;101323.38;5062089;28;20053;-56
2021/11/16 05:18:40;;;;;;;1.75;1.20;;;;;;;-1.26;60.96;101320.78;5049116;28;20042;-54
2021/11/16 05:21:08;;;;;;;1.85;1.20;;;;;;;-1.26;60.61;101327.78;5034518;28;20457;-52
2021/11/16 05:23:40;;;;;;;2.45;1.30;;;;;;;-1.20;60.36;101331.25;5041481;28;20016;-57
2021/11/16 05:26:06;;;;;;;2.65;1.00;;;;;;;-1.13;60.68;101323.31;5065485;28;20049;-55
2021/11/16 05:28:32;;;;;;;3.38;1.15;;;;;;;-1.12;60.22;101323.31;5062637;28;20032;-55
2021/11/16 05:30:57;;;;;;;3.17;1.00;;;;;;;-1.11;60.05;101306.66;5064287;28;20090;-56
2021/11/16 05:33:24;;;;;;;1.42;1.08;;;;;;;-1.02;60.46;101303.94;5056963;28;20448;-57
2021/11/16 05:35:51;;;;;;;2.03;1.33;;;;;;;-0.76;59.94;101308.06;5067953;28;20032;-55
2021/11/16 05:38:24;;;;;;;2.95;1.50;;;;;;;-0.32;59.00;101318.16;5063354;28;20082;-56
2021/11/16 05:40:50;;;;;;;2.75;1.25;;;;;;;0.20;57.23;101323.66;5048612;28;20469;-57
2021/11/16 05:43:17;;;;;;;3.97;1.33;;;;;;;0.83;55.53;101316.63;5068030;28;20048;-56
2021/11/16 05:45:43;;;;;;;2.00;1.10;;;;;;;1.21;54.53;101309.84;5054156;28;20047;-55
2021/11/16 05:48:10;;;;;;;1.85;1.13;;;;;;;1.59;53.38;101299.47;5050178;28;20028;-54
2021/11/16 05:50:36;;;;;;;2.28;1.27;;;;;;;2.12;52.59;101286.03;5035379;28;20038;-54
2021/11/16 05:53:03;;;;;;;2.35;1.33;;;;;;;2.73;50.67;101248.50;5065026;28;20032;-53
2021/11/16 05:55:29;;;;;;;4.75;1.20;;;;;;;3.77;47.62;101238.69;5057074;28;20059;-52
2021/11/16 05:57:56;;;;;;;2.08;1.27;;;;;;;5.21;44.71;101268.53;5066631;28;20052;-53
2021/11/16 06:00:22;;;;;;;1.83;1.08;;;;;;;6.07;42.67;101266.34;5063144;28;20029;-56
2021/11/16 06:02:48;;;;;;;4.53;0.95;;;;;;;6.72;41.14;101261.09;5058078;28;20107;-57
2021/11/16 06:05:14;;;;;;;1.77;0.90;;;;;;;7.72;39.28;101251.50;5069690;28;20416;-54
2021/11/16 06:07:39;;;;;;;9.05;1.50;;;;;;;9.45;35.92;101247.50;5057543;28;20100;-58
2021/11/16 06:10:06;;;;;;;3.40;0.90;;;;;;;11.09;32.93;101247.31;5063380;28;20041;-53
2021/11/16 06:12:32;;;;;;;1.55;1.02;;;;;;;12.51;30.44;101251.97;5064487;28;20115;-54
2021/11/16 06:14:58;;;;;;;2.33;1.02;;;;;;;12.80;29.65;101239.28;5057083;28;20040;-56
2021/11/16 06:17:23;;;;;;;3.83;1.00;;;;;;;13.41;28.63;101235.16;5052514;28;20481;-57
2021/11/16 06:19:49;;;;;;;3.00;1.33;;;;;;;14.44;27.13;101234.97;5064511;28;20037;-55
2021/11/16 06:22:15;;;;;;;1.88;1.23;;;;;;;15.48;25.57;101235.19;5051439;28;20059;-53
2021/11/16 06:24:41;;;;;;;8.63;1.20;;;;;;;16.42;24.28;101243.97;5052312;28;20458;-56
2021/11/16 06:27:07;;;;;;;1.67;1.10;;;;;;;17.42;22.72;101225.69;5048759;28;20176;-60
2021/11/16 06:29:33;;;;;;;2.15;1.10;;;;;;;17.91;21.80;101210.50;5041807;28;20497;-57
2021/11/16 06:31:59;;;;;;;1.80;1.13;;;;;;;18.15;21.20;101201.16;5041693;28;20055;-56
2021/11/16 06:34:25;;;;;;;6.43;1.30;;;;;;;18.46;20.97;101209.19;5040430;28;20052;-54
2021/11/16 06:36:51;;;;;;;3.80;1.40;;;;;;;18.53;20.77;101219.47;5043388;28;20045;-58
2021/11/16 06:39:19;;;;;;;3.55;1.40;;;;;;;18.77;21.06;101208.19;5043198;28;20444;-55
2021/11/16 06:41:46;;;;;;;7.07;1.65;;;;;;;19.38;19.92;101221.56;5042662;28;20024;-55
2021/11/16 06:44:14;;;;;;;6.25;1.80;;;;;;;20.06;18.98;101212.28;5043581;28;20033;-59
2021/11/16 06:46:40;;;;;;;2.47;1.50;;;;;;;20.36;18.40;101202.88;5041850;28;20021;-55
2021/11/16 06:49:08;;;;;;;1.50;1.40;;;;;;;20.62;18.29;101206.72;5042898;28;20025;-57
2021/11/16 06:51:38;;;;;;;4.90;1.55;;;;;;;20.73;18.31;101200.19;5042274;28;20036;-56
2021/11/16 06:54:10;;;;;;;3.15;1.70;;;;;;;20.98;19.00;101203.13;5041725;28;20572;-55
2021/11/16 06:56:36;;;;;;;7.78;1.83;;;;;;;20.80;17.59;101193.13;5041798;28;20120;-55
2021/11/16 06:59:03;;;;;;;6.00;1.90;;;;;;;21.02;17.33;101191.78;5044891;28;21025;-56
2021/11/16 07:01:30;;;;;;;3.58;1.40;;;;;;;21.32;16.85;101192.28;5068195;28;20032;-59
2021/11/16 07:04:01;;;;;;;5.90;1.52;;;;;;;21.56;16.45;101184.41;5047585;28;20040;-59
2021/11/16 07:06:29;;;;;;;3.47;1.52;;;;;;;21.82;16.44;101198.00;5052415;28;20083;-60
2021/11/16 07:08:56;;;;;;;7.60;1.77;;;;;;;21.92;16.72;101193.25;5055269;28;20050;-58
2021/11/16 07:11:24;;;;;;;5.78;1.58;;;;;;;21.86;16.61;101191.22;5066589;28;20094;-58
2021/11/16 07:13:54;;;;;;;3.60;1.60;;;;;;;21.83;17.40;101201.59;5057325;28;20094;-60
2021/11/16 07:16:21;;;;;;;2.97;1.50;;;;;;;20.42;16.78;101201.44;5061293;28;20025;-59
2021/11/16 07:18:50;;;;;;;4.45;1.77;;;;;;;18.59;18.75;101199.94;5065655;28;20090;-60
2021/11/16 07:21:17;;;;;;;2.75;1.70;;;;;;;16.72;20.63;101202.69;5062316;28;20480;-59
2021/11/16 07:23:42;;;;;;;7.72;1.90;;;;;;;14.68;22.88;101199.06;5072133;28;20054;-61
2021/11/16 07:26:17;;;;;;;4.55;1.55;;;;;;;12.90;25.67;101200.06;5071786;28;20447;-59
2021/11/16 07:28:49;;;;;;;9.02;1.80;;;;;;;10.96;28.21;101198.09;5071098;28;20406;-63
2021/11/16 07:31:22;;;;;;;6.03;1.90;;;;;;;9.32;30.55;101195.66;5071613;28;20040;-59
2021/11/16 07:33:52;;;;;;;3.53;1.63;;;;;;;7.82;33.18;101187.94;5071526;28;20158;-60
2021/11/16 07:36:18;;;;;;;1.95;1.60;;;;;;;6.80;35.22;101183.59;5070380;28;20036;-58
2021/11/16 07:38:48;;;;;;;3.53;1.65;;;;;;;5.95;37.04;101184.38;5071302;28;20058;-58
2021/11/16 07:41:24;;;;;;;3.47;1.55;;;;;;;5.29;38.39;101194.78;5071634;28;20024;-60
2021/11/16 07:43:51;;;;;;;4.53;1.48;;;;;;;4.76;39.78;101200.19;5071897;28;20083;-58
2021/11/16 07:46:17;;;;;;;3.33;1.58;;;;;;;4.37;40.61;101202.38;5071225;28;20036;-57
2021/11/16 07:48:43;;;;;;;3.95;1.52;;;;;;;4.14;41.00;101205.75;5071854;28;20064;-57
2021/11/16 07:51:12;;;;;;;4.05;1.90;;;;;;;3.95;41.30;101210.75;5071658;28;20437;-60
2021/11/16 07:53:43;;;;;;;6.50;1.80;;;;;;;3.97;42.27;101209.78;5071873;28;20056;-56
2021/11/16 07:56:20;;;;;;;7.60;1.90;;;;;;;3.99;40.78;101199.13;5071687;28;20041;-60
2021/11/16 07:59:09;;;;;;;4.18;1.92;;;;;;;3.84;41.98;101188.09;5071892;28;20447;-58
2021/11/16 08:01:43;;;;;;;3.63;1.92;;;;;;;3.68;42.43;101181.53;5071170;28;20040;-58
2021/11/16 08:04:26;;;;;;;2.47;1.63;;;;;;;3.51;43.76;101184.69;5071062;28;20484;-62
2021/11/16 08:09:28;;;;;;;4.88;1.80;;;;;;;3.14;44.61;101161.00;5070118;28;20151;-60
2021/11/16 08:14:44;;;;;;;5.22;1.95;;;;;;;3.03;44.96;101172.78;5070461;28;20060;-62
2021/11/16 08:17:10;;;;;;;5.22;2.00;;;;;;;2.85;45.82;101185.59;5069378;28;20055;-63
2021/11/16 08:19:38;;;;;;;2.92;1.80;;;;;;;2.79;45.28;101168.13;5069615;28;20060;-62
2021/11/16 08:22:13;;;;;;;6.15;2.78;;;;;;;2.85;45.49;101173.25;5069722;28;20363;-60
2021/11/16 08:24:43;;;;;;;4.60;2.03;;;;;;;2.77;45.65;101163.78;5070920;28;20025;-59
2021/11/16 08:27:12;;;;;;;2.60;1.83;;;;;;;2.77;45.57;101164.63;5071241;28;20044;-60
2021/11/16 08:29:40;;;;;;;3.47;2.10;;;;;;;2.62;46.45;101154.47;5070789;28;20033;-58
2021/11/16 08:32:14;;;;;;;6.90;2.10;;;;;;;2.63;46.43;101157.06;5070873;28;20032;-61
2021/11/16 08:34:42;;;;;;;2.42;1.67;;;;;;;2.58;46.52;101151.03;5071511;28;20036;-61
2021/11/16 08:37:10;;;;;;;4.07;2.03;;;;;;;2.60;46.15;101141.28;5069830;28;20477;-57
2021/11/16 08:40:05;;;;;;;3.38;2.08;;;;;;;2.62;45.75;101134.19;5070227;28;20043;-59
2021/11/16 08:42:34;;;;;;;5.43;1.92;;;;;;;2.50;46.66;101116.00;5068272;28;20045;-60
2021/11/16 08:45:12;;;;;;;5.70;1.90;;;;;;;2.42;47.45;101109.16;5071115;28;20029;-57
2021/11/16 08:47:45;;;;;;;2.00;1.70;;;;;;;2.45;47.15;101108.19;5070932;28;20097;-59
2021/11/16 08:50:46;;;;;;;5.57;2.13;;;;;;;2.39;47.06;101108.34;5070503;28;20460;-63
2021/11/16 08:53:33;;;;;;;6.47;2.10;;;;;;;2.29;47.21;101107.72;5058525;28;20066;-61
2021/11/16 08:56:06;;;;;;;3.17;2.10;;;;;;;2.23;47.63;101106.09;5070716;28;20127;-58
2021/11/16 08:58:32;;;;;;;4.30;2.47;;;;;;;2.11;48.33;101099.34;5070704;28;20039;-59
2021/11/16 09:01:01;;;;;;;3.83;2.42;;;;;;;2.07;48.78;101107.41;5070592;28;20047;-60
2021/11/16 09:03:32;;;;;;;3.78;2.20;;;;;;;2.09;48.20;101095.88;5071128;28;20043;-57
2021/11/16 09:06:01;;;;;;;5.20;2.47;;;;;;;2.06;48.88;101089.81;5070828;28;20484;-59
2021/11/16 09:08:31;;;;;;;4.28;1.92;;;;;;;2.07;48.82;101076.56;5070343;28;20028;-59
2021/11/16 09:11:02;;;;;;;4.65;2.10;;;;;;;2.13;48.20;101076.38;5070471;28;20032;-56
2021/11/16 09:13:30;;;;;;;13.93;3.08;;;;;;;2.06;48.78;101068.69;5069662;28;20040;-58
2021/11/16 09:16:06;;;;;;;6.10;2.10;;;;;;;2.11;48.86;101067.63;5070448;28;20032;-59
2021/11/16 09:18:36;;;;;;;;;;;;;;;2.28;46.96;101061.06;5070886;28;20025;-59
2021/11/16 09:21:04;;;;;;;4.65;2.45;;;;;;;2.02;49.09;101057.31;5070180;28;20005;-60
2021/11/16 09:23:33;;;;;;;4.32;2.22;;;;;;;1.93;49.14;101049.59;5070123;28;20043;-60
2021/11/16 09:28:58;;;;;;;5.03;2.05;;;;;;;1.86;48.82;101054.19;5069100;28;20401;-56
2021/11/16 09:31:31;;;;;;;7.28;2.30;;;;;;;1.81;49.02;101067.50;5069917;28;20029;-59
2021/11/16 09:34:22;;;;;;;4.75;2.08;;;;;;;1.72;49.30;101054.53;5070679;28;20067;-58
2021/11/16 09:37:02;;;;;;;5.35;2.40;;;;;;;1.77;49.01;101057.91;5069947;28;20074;-59
2021/11/16 09:39:37;;;;;;;4.18;2.30;;;;;;;1.77;49.73;101054.41;5070572;28;20025;-59
2021/11/16 09:42:09;;;;;;;4.30;1.95;;;;;;;1.78;49.14;101061.41;5070302;28;20036;-57
2021/11/16 09:44:44;;;;;;;2.47;2.10;;;;;;;1.69;49.59;101059.88;5070110;28;20369;-60
2021/11/16 09:47:18;;;;;;;6.05;2.80;;;;;;;1.74;49.18;101050.06;5070551;28;20024;-59
2021/11/16 09:49:44;;;;;;;3.60;2.20;;;;;;;1.69;49.36;101044.91;5070529;28;20041;-62
2021/11/16 09:52:13;;;;;;;4.43;2.33;;;;;;;1.69;49.48;101036.13;5074035;28;20107;-59
2021/11/16 09:54:54;;;;;;;5.97;2.30;;;;;;;1.66;49.52;101026.50;5072920;28;20044;-59
2021/11/16 09:57:26;;;;;;;3.65;2.17;;;;;;;1.66;49.80;101026.50;5073746;28;20059;-61
2021/11/16 09:59:59;;;;;;;3.80;2.20;;;;;;;1.64;49.93;101020.38;5073519;28;20033;-62
2021/11/16 10:02:28;;;;;;;4.28;2.72;;;;;;;1.71;49.62;101016.69;5074046;28;20082;-61
2021/11/16 10:05:01;;;;;;;3.15;2.28;;;;;;;1.73;49.72;101019.28;5073334;28;20497;-61
2021/11/16 10:07:27;;;;;;;4.00;2.53;;;;;;;1.75;49.65;101004.28;5073251;28;20490;-60
2021/11/16 10:09:53;;;;;;;5.57;2.55;;;;;;;1.81;49.45;101005.88;5073567;28;20029;-59
2021/11/16 10:12:23;;;;;;;5.13;2.42;;;;;;;1.81;49.61;101009.41;5074661;28;20496;-61
2021/11/16 10:14:51;;;;;;;6.68;2.65;;;;;;;1.85;49.22;101013.69;5073434;28;20105;-54
2021/11/16 10:17:19;;;;;;;3.13;2.40;;;;;;;1.89;49.42;101003.06;5073485;28;20024;-59
2021/11/16 10:19:45;;;;;;;6.97;2.78;;;;;;;1.97;49.39;100996.66;5073647;28;20032;-57
2021/11/16 10:22:12;;;;;;;7.68;2.40;;;;;;;2.08;48.88;100993.75;5073547;28;20035;-55
2021/11/16 10:24:39;;;;;;;3.78;2.10;;;;;;;2.12;48.63;100999.81;5072864;28;20036;-57
2021/11/16 10:27:17;;;;;;;6.57;2.50;;;;;;;2.25;48.48;100992.44;5073343;28;20114;-59
2021/11/16 10:30:06;;;;;;;4.05;2.25;;;;;;;2.27;48.54;100988.81;5072356;28;20055;-58
2021/11/16 10:32:32;;;;;;;7.55;2.63;;;;;;;2.20;48.64;100981.97;5073311;28;20119;-59
2021/11/16 10:35:22;;;;;;;7.85;2.70;;;;;;;2.35;48.59;100983.34;5072690;28;20037;-59
2021/11/16 10:37:54;;;;;;;5.47;3.03;;;;;;;2.39;48.13;100977.03;5073738;28;20040;-58
2021/11/16 10:40:24;;;;;;;5.28;2.88;;;;;;;2.36;48.36;100966.56;5073792;28;20035;-58
2021/11/16 10:42:53;;;;;;;8.30;3.53;;;;;;;2.40;47.99;100965.56;5073326;28;20039;-60
2021/11/16 10:45:22;;;;;;;7.75;2.97;;;;;;;2.45;47.57;100960.16;5071460;28;20208;-62
2021/11/16 10:47:48;;;;;;;6.55;3.38;;;;;;;2.43;48.17;100975.19;5072840;28;20491;-64
2021/11/16 10:50:18;;;;;;;5.15;2.83;;;;;;;2.46;47.40;100958.41;5072168;28;20068;-56
2021/11/16 10:52:55;;;;;;;5.90;2.63;;;;;;;2.42;47.62;100966.41;5072956;28;20036;-58
2021/11/16 10:55:20;;;;;;;6.68;3.25;;;;;;;2.45;47.66;100954.88;5072790;28;20036;-58
2021/11/16 10:58:03;;;;;;;9.25;4.45;;;;;;;2.52;47.89;100956.41;5072578;28;20091;-62
2021/11/16 11:00:47;;;;;;;6.03;3.60;;;;;;;2.60;47.71;100948.25;5073495;28;20035;-59
2021/11/16 11:03:28;;;;;;;8.15;3.20;;;;;;;2.62;47.79;100949.09;5071706;28;20413;-58
2021/11/16 11:06:07;;;;;;;5.82;3.47;;;;;;;2.60;47.49;100944.78;5072465;28;20040;-60
2021/11/16 11:08:53;;;;;;;12.35;4.20;;;;;;;2.64;47.88;100944.63;5072435;28;20509;-61
2021/11/16 11:11:46;;;;;;;7.38;4.13;;;;;;;2.47;47.86;100912.53;5072472;28;20123;-58
2021/11/16 11:14:25;;;;;;;7.47;3.63;;;;;;;2.71;47.51;100937.38;5072459;28;20090;-59
2021/11/16 11:17:03;;;;;;;8.18;3.55;;;;;;;2.66;47.59;100937.53;5072388;28;20119;-61
2021/11/16 11:19:40;;;;;;;10.52;3.85;;;;;;;2.63;47.38;100936.75;5071008;28;20020;-58
2021/11/16 11:24:41;;;;;;;6.35;3.33;;;;;;;2.49;47.66;100930.06;5071769;28;20024;-56
2021/11/16 11:27:31;;;;;;;6.53;3.72;;;;;;;2.53;47.38;100941.44;5071599;28;20044;-59
2021/11/16 11:32:34;;;;;;;5.68;3.20;;;;;;;2.59;47.56;100935.97;5071691;28;20059;-57
2021/11/16 11:35:13;;;;;;;8.38;3.92;;;;;;;2.60;47.55;100936.84;5072036;28;20353;-60
2021/11/16 11:37:51;;;;;;;5.82;2.78;;;;;;;2.54;47.10;100935.22;5071628;28;20025;-59
2021/11/16 11:40:39;;;;;;;7.03;3.40;;;;;;;2.34;47.27;100888.25;5071705;28;20484;-59
2021/11/16 11:43:14;;;;;;;4.82;2.80;;;;;;;2.54;46.71;100940.53;5072058;28;20029;-60
2021/11/16 11:45:42;;;;;;;6.05;2.97;;;;;;;2.49;46.73;100938.00;5071582;28;20514;-59
2021/11/16 11:48:18;;;;;;;5.45;2.85;;;;;;;2.48;46.53;100928.34;5071529;28;20040;-55
2021/11/16 11:50:46;;;;;;;7.28;3.20;;;;;;;2.42;47.39;100921.47;5071816;28;20040;-60
2021/11/16 11:53:16;;;;;;;7.18;3.40;;;;;;;2.39;47.05;100924.19;5070173;28;20358;-59
2021/11/16 11:55:51;;;;;;;4.85;3.05;;;;;;;2.40;47.21;100925.06;5071660;28;20028;-58
2021/11/16 11:58:18;;;;;;;;;;;;;;;2.60;47.26;100915.69;5072337;28;20021;-59
2021/11/16 12:00:46;;;;;;;3.95;2.78;;;;;;;2.41;46.90;100911.81;5071538;28;20073;-59
2021/11/16 12:03:12;;;;;;;5.95;2.85;;;;;;;2.31;47.45;100927.97;5071392;28;20119;-60